Time;durP1;ratioP1;P1;durP2;ratioP2;P2;SDS_P1;SDS_P2;PMS_P1;PMS_P2;Temp;Humidity;BMP_temperature;BMP_pressure;BME280_temperature;BME280_humidity;BME280_pressure;Samples;Min_cycle;Max_cycle;Signal;HPM_P1;HPM_P2
2021/12/21 00:01:16;;;;;;;0.00;0.00;;;;;22.50;100059.00;;;;5116758;27;20047;-78
2021/12/21 00:03:45;;;;;;;0.00;0.00;;;;;22.50;100076.00;;;;5108297;28;20134;-77
2021/12/21 00:06:20;;;;;;;0.10;0.08;;;;;22.40;100074.00;;;;5108045;28;20039;-77
2021/12/21 00:08:49;;;;;;;0.00;0.00;;;;;22.40;100065.00;;;;5108847;28;20048;-77
2021/12/21 00:11:19;;;;;;;0.00;0.00;;;;;22.30;100073.00;;;;5111884;27;20187;-78
2021/12/21 00:16:43;;;;;;;0.00;0.00;;;;;22.20;100064.00;;;;5107894;28;20040;-77
2021/12/21 00:19:25;;;;;;;0.00;0.00;;;;;22.10;100078.00;;;;5107515;28;20460;-76
2021/12/21 00:22:03;;;;;;;0.00;0.00;;;;;22.10;100096.00;;;;5115698;27;20053;-76
2021/12/21 00:24:44;;;;;;;0.00;0.00;;;;;22.00;100088.00;;;;5116853;27;20066;-76
2021/12/21 00:27:15;;;;;;;0.00;0.00;;;;;22.00;100095.00;;;;5117455;27;20116;-76
2021/12/21 00:29:44;;;;;;;;;;;;;21.90;100089.00;;;;5115258;27;20274;-77
2021/12/21 00:32:14;;;;;;;0.00;0.00;;;;;21.90;100077.00;;;;5106531;27;19952;-76
2021/12/21 00:34:44;;;;;;;0.30;0.28;;;;;22.00;100067.00;;;;5117566;27;20046;-75
2021/12/21 00:37:13;;;;;;;3.00;0.90;;;;;22.00;100065.00;;;;5109652;27;20045;-77
2021/12/21 00:39:43;;;;;;;0.00;0.00;;;;;21.90;100068.00;;;;5107179;28;20055;-76
2021/12/21 00:42:12;;;;;;;0.10;0.10;;;;;21.90;100080.00;;;;5110993;27;20059;-75
2021/12/21 00:44:42;;;;;;;0.00;0.00;;;;;21.90;100101.00;;;;5118790;27;20092;-76
2021/12/21 00:47:13;;;;;;;0.00;0.00;;;;;21.90;100124.00;;;;5124045;27;20139;-78
2021/12/21 00:49:46;;;;;;;0.00;0.00;;;;;21.90;100112.00;;;;5126255;27;20077;-77
2021/12/21 00:52:16;;;;;;;0.65;0.20;;;;;21.90;100092.00;;;;5127057;27;20058;-78
2021/12/21 00:54:45;;;;;;;0.00;0.00;;;;;21.90;100102.00;;;;5127034;27;20151;-77
2021/12/21 00:57:15;;;;;;;0.43;0.15;;;;;21.90;100108.00;;;;5128910;27;20484;-76
2021/12/21 00:59:45;;;;;;;0.00;0.00;;;;;21.80;100124.00;;;;5128981;27;20043;-77
2021/12/21 01:02:14;;;;;;;0.00;0.00;;;;;21.70;100112.00;;;;5129629;27;20494;-76
2021/12/21 01:04:48;;;;;;;0.00;0.00;;;;;21.70;100130.00;;;;5131621;27;20043;-78
2021/12/21 01:07:28;;;;;;;0.00;0.00;;;;;21.60;100116.00;;;;5130617;27;20088;-76
2021/12/21 01:10:29;;;;;;;0.00;0.00;;;;;21.70;100121.00;;;;5130750;27;20035;-79
2021/12/21 01:15:55;;;;;;;2.30;0.52;;;;;21.70;100121.00;;;;5127931;27;20074;-76
2021/12/21 01:18:33;;;;;;;4.93;1.50;;;;;21.70;100116.00;;;;5126656;27;20047;-77
2021/12/21 01:21:18;;;;;;;0.00;0.00;;;;;21.70;100124.00;;;;5124065;27;20039;-78
2021/12/21 01:26:55;;;;;;;0.88;0.63;;;;;21.90;100139.00;;;;5125396;27;20421;-76
2021/12/21 01:34:40;;;;;;;0.57;0.45;;;;;21.80;100153.00;;;;5127307;27;20067;-78
2021/12/21 01:37:25;;;;;;;1.55;0.82;;;;;21.70;100126.00;;;;5127006;27;20052;-76
2021/12/21 01:40:03;;;;;;;0.00;0.00;;;;;21.70;100143.00;;;;5129078;28;20502;-76
2021/12/21 01:50:56;;;;;;;0.10;0.10;;;;;21.60;100130.00;;;;5125785;27;20174;-79
2021/12/21 01:53:26;;;;;;;0.00;0.00;;;;;21.60;100134.00;;;;5128627;27;20143;-77
2021/12/21 01:55:56;;;;;;;0.00;0.00;;;;;21.50;100141.00;;;;5129383;27;20062;-76
2021/12/21 01:58:26;;;;;;;0.00;0.00;;;;;21.40;100134.00;;;;5130882;27;20551;-76
2021/12/21 02:00:55;;;;;;;1.38;1.15;;;;;21.70;100134.00;;;;5129120;28;20055;-75
2021/12/21 02:03:25;;;;;;;1.35;0.55;;;;;21.80;100154.00;;;;5128991;27;20437;-77
2021/12/21 02:05:54;;;;;;;0.00;0.00;;;;;21.70;100138.00;;;;5128497;28;20547;-76
2021/12/21 02:08:24;;;;;;;0.00;0.00;;;;;21.50;100147.00;;;;5129581;27;20043;-75
2021/12/21 02:10:54;;;;;;;0.00;0.00;;;;;21.40;100132.00;;;;5128559;28;20608;-78
2021/12/21 02:13:23;;;;;;;0.00;0.00;;;;;21.30;100130.00;;;;5114390;27;20103;-75
2021/12/21 02:15:53;;;;;;;0.05;0.03;;;;;21.20;100126.00;;;;5133739;27;20110;-77
2021/12/21 02:19:16;;;;;;;0.08;0.08;;;;;21.20;100128.00;;;;5132389;27;20042;-78
2021/12/21 02:21:40;;;;;;;0.00;0.00;;;;;21.20;100116.00;;;;5127673;27;20407;-79
2021/12/21 02:24:15;;;;;;;0.00;0.00;;;;;21.20;100127.00;;;;5133634;27;20062;-77
2021/12/21 02:26:51;;;;;;;0.00;0.00;;;;;21.10;100114.00;;;;5133389;27;20043;-78
2021/12/21 02:29:27;;;;;;;0.00;0.00;;;;;21.10;100117.00;;;;5133106;27;20035;-80
2021/12/21 02:31:57;;;;;;;0.00;0.00;;;;;21.00;100107.00;;;;5132948;27;20137;-76
2021/12/21 02:34:27;;;;;;;0.00;0.00;;;;;21.00;100100.00;;;;5133097;27;20039;-77
2021/12/21 02:36:57;;;;;;;0.88;0.88;;;;;21.00;100077.00;;;;5139249;27;20047;-76
2021/12/21 02:39:27;;;;;;;0.00;0.00;;;;;20.90;100112.00;;;;5138305;27;20066;-74
2021/12/21 02:41:57;;;;;;;0.00;0.00;;;;;20.90;100100.00;;;;5133255;27;20070;-76
2021/12/21 02:44:26;;;;;;;0.30;0.30;;;;;20.80;100082.00;;;;5132588;27;20111;-76
2021/12/21 02:46:55;;;;;;;0.10;0.10;;;;;20.80;100095.00;;;;5131659;27;20134;-78
2021/12/21 02:49:25;;;;;;;0.10;0.05;;;;;20.80;100075.00;;;;5132800;27;20133;-78
2021/12/21 02:51:55;;;;;;;0.00;0.00;;;;;20.80;100068.00;;;;5132448;27;20047;-77
2021/12/21 02:54:24;;;;;;;0.00;0.00;;;;;20.70;100063.00;;;;5133594;27;20077;-77
2021/12/21 02:56:53;;;;;;;0.25;0.22;;;;;20.70;100064.00;;;;5133112;27;20050;-77
2021/12/21 02:59:23;;;;;;;0.13;0.13;;;;;20.70;100085.00;;;;5132388;27;20457;-76
2021/12/21 03:01:53;;;;;;;0.00;0.00;;;;;20.80;100085.00;;;;5132266;27;20134;-80
2021/12/21 03:04:23;;;;;;;0.52;0.40;;;;;20.80;100089.00;;;;5130003;27;20047;-78
2021/12/21 03:09:42;;;;;;;0.10;0.08;;;;;20.70;100080.00;;;;5130474;27;20043;-76
2021/12/21 03:14:53;;;;;;;0.37;0.37;;;;;20.60;100067.00;;;;5129362;27;20047;-77
2021/12/21 03:17:23;;;;;;;0.27;0.27;;;;;20.60;100064.00;;;;5129951;27;20142;-75
2021/12/21 03:19:52;;;;;;;0.25;0.15;;;;;20.60;100051.00;;;;5129710;27;20547;-77
2021/12/21 03:22:22;;;;;;;0.00;0.00;;;;;20.60;100054.00;;;;5129723;27;20578;-76
2021/12/21 03:24:51;;;;;;;0.08;0.08;;;;;20.60;100075.00;;;;5130594;27;20047;-79
2021/12/21 03:27:21;;;;;;;0.10;0.10;;;;;20.60;100081.00;;;;5129975;27;20072;-77
2021/12/21 03:29:50;;;;;;;0.00;0.00;;;;;20.60;100057.00;;;;5130310;27;20088;-77
2021/12/21 03:32:20;;;;;;;0.00;0.00;;;;;20.60;100066.00;;;;5130295;27;20525;-76
2021/12/21 03:34:50;;;;;;;0.00;0.00;;;;;20.50;100074.00;;;;5130962;27;20043;-77
2021/12/21 03:37:19;;;;;;;0.00;0.00;;;;;20.50;100060.00;;;;5131639;27;20698;-77
2021/12/21 03:39:51;;;;;;;1.20;0.82;;;;;20.40;100057.00;;;;5131325;27;20104;-77
2021/12/21 03:42:24;;;;;;;0.00;0.00;;;;;20.50;100049.00;;;;5133629;27;20069;-75
2021/12/21 03:44:54;;;;;;;0.00;0.00;;;;;20.40;100041.00;;;;5132803;27;20035;-76
2021/12/21 03:47:25;;;;;;;0.00;0.00;;;;;20.40;100027.00;;;;5132734;27;20076;-75
2021/12/21 03:50:01;;;;;;;0.13;0.13;;;;;20.40;100018.00;;;;5131767;27;20054;-76
2021/12/21 03:52:31;;;;;;;0.00;0.00;;;;;20.40;100023.00;;;;5131920;27;20072;-78
2021/12/21 03:55:02;;;;;;;0.60;0.60;;;;;20.40;100043.00;;;;5130218;27;20047;-74
2021/12/21 03:57:32;;;;;;;0.00;0.00;;;;;20.40;100010.00;;;;5130856;27;20046;-79
2021/12/21 04:00:03;;;;;;;0.00;0.00;;;;;20.40;100010.00;;;;5129214;27;20474;-79
2021/12/21 04:02:34;;;;;;;0.00;0.00;;;;;20.40;100006.00;;;;5128488;27;20051;-76
2021/12/21 04:05:07;;;;;;;0.00;0.00;;;;;20.40;100029.00;;;;5127811;27;20067;-75
2021/12/21 04:07:37;;;;;;;0.38;0.20;;;;;20.20;99993.00;;;;5132805;27;20054;-78
2021/12/21 04:10:07;;;;;;;0.00;0.00;;;;;20.30;100002.00;;;;5132616;27;20082;-78
2021/12/21 04:12:38;;;;;;;0.00;0.00;;;;;20.30;100006.00;;;;5131661;27;20039;-76
2021/12/21 04:15:09;;;;;;;0.00;0.00;;;;;20.20;100002.00;;;;5132244;27;20544;-75
2021/12/21 04:17:38;;;;;;;0.00;0.00;;;;;20.10;100000.00;;;;5132559;27;20071;-76
2021/12/21 04:20:08;;;;;;;0.00;0.00;;;;;20.00;100007.00;;;;5132225;27;20051;-75
2021/12/21 04:22:37;;;;;;;1.10;0.38;;;;;20.00;100009.00;;;;5132104;27;20062;-77
2021/12/21 04:25:07;;;;;;;0.00;0.00;;;;;20.00;99991.00;;;;5132053;27;20047;-75
2021/12/21 04:27:37;;;;;;;0.10;0.10;;;;;20.00;99988.00;;;;5130950;27;20539;-77
2021/12/21 04:30:07;;;;;;;0.00;0.00;;;;;20.10;100018.00;;;;5130464;27;20122;-75
2021/12/21 04:32:36;;;;;;;0.22;0.22;;;;;20.00;99981.00;;;;5131453;27;20071;-78
2021/12/21 04:35:06;;;;;;;0.10;0.10;;;;;20.00;99991.00;;;;5131013;27;20513;-75
2021/12/21 04:37:42;;;;;;;0.00;0.00;;;;;19.90;99991.00;;;;5131308;27;20069;-75
2021/12/21 04:40:16;;;;;;;0.03;0.03;;;;;19.90;99982.00;;;;5132371;27;20517;-76
2021/12/21 04:42:46;;;;;;;0.00;0.00;;;;;19.80;99974.00;;;;5132957;27;20073;-76
2021/12/21 04:45:16;;;;;;;0.85;0.57;;;;;19.80;99975.00;;;;5132639;27;20079;-76
2021/12/21 04:47:45;;;;;;;0.10;0.10;;;;;19.80;99995.00;;;;5132453;27;20039;-75
2021/12/21 04:50:15;;;;;;;0.00;0.00;;;;;19.80;99989.00;;;;5133595;27;20089;-74
2021/12/21 04:52:44;;;;;;;0.00;0.00;;;;;19.90;100003.00;;;;5133336;27;20063;-78
2021/12/21 04:55:14;;;;;;;0.00;0.00;;;;;19.80;100002.00;;;;5132275;27;20074;-75
2021/12/21 04:57:43;;;;;;;0.00;0.00;;;;;19.80;99981.00;;;;5132793;27;20517;-76
2021/12/21 05:00:14;;;;;;;0.00;0.00;;;;;19.80;99981.00;;;;5133067;27;20071;-77
2021/12/21 05:02:44;;;;;;;0.00;0.00;;;;;19.80;99998.00;;;;5133151;27;20541;-75
2021/12/21 05:05:14;;;;;;;0.00;0.00;;;;;19.70;99982.00;;;;5132811;27;20047;-78
2021/12/21 05:07:49;;;;;;;0.00;0.00;;;;;19.70;99988.00;;;;5130115;27;20042;-77
2021/12/21 05:10:19;;;;;;;0.00;0.00;;;;;19.70;99989.00;;;;5130758;27;20044;-76
2021/12/21 05:12:49;;;;;;;0.00;0.00;;;;;19.70;99998.00;;;;5131227;27;20146;-75
2021/12/21 05:15:18;;;;;;;0.00;0.00;;;;;19.60;99994.00;;;;5131569;27;20055;-75
2021/12/21 05:17:47;;;;;;;0.00;0.00;;;;;19.60;99983.00;;;;5131597;27;20069;-75
2021/12/21 05:20:17;;;;;;;0.10;0.10;;;;;19.60;99970.00;;;;5132792;27;20142;-74
2021/12/21 05:22:48;;;;;;;0.00;0.00;;;;;19.70;99955.00;;;;5133554;27;20039;-75
2021/12/21 05:25:18;;;;;;;0.00;0.00;;;;;19.60;99942.00;;;;5134058;27;20532;-75
2021/12/21 05:27:48;;;;;;;0.00;0.00;;;;;19.70;99984.00;;;;5131342;27;20532;-76
2021/12/21 05:30:18;;;;;;;0.20;0.20;;;;;19.90;99984.00;;;;5128749;27;20051;-76
2021/12/21 05:32:49;;;;;;;0.00;0.00;;;;;19.90;99991.00;;;;5129389;27;20047;-76
2021/12/21 05:35:20;;;;;;;0.00;0.00;;;;;19.80;99983.00;;;;5128735;27;20046;-75
2021/12/21 05:37:53;;;;;;;0.00;0.00;;;;;19.80;99992.00;;;;5128801;27;20039;-76
2021/12/21 05:40:30;;;;;;;0.00;0.00;;;;;19.70;99972.00;;;;5129427;27;20526;-77
2021/12/21 05:43:01;;;;;;;0.00;0.00;;;;;19.60;99964.00;;;;5131450;28;20466;-76
2021/12/21 05:45:31;;;;;;;0.00;0.00;;;;;19.60;99966.00;;;;5129443;28;20487;-76
2021/12/21 05:48:01;;;;;;;0.00;0.00;;;;;19.50;99976.00;;;;5132143;27;20039;-78
2021/12/21 05:50:31;;;;;;;0.45;0.15;;;;;19.60;99982.00;;;;5133314;27;20058;-78
2021/12/21 05:53:01;;;;;;;0.00;0.00;;;;;19.60;99969.00;;;;5134110;27;20134;-77
2021/12/21 05:55:31;;;;;;;0.00;0.00;;;;;19.50;99984.00;;;;5133979;27;20051;-75
2021/12/21 05:58:00;;;;;;;0.00;0.00;;;;;19.50;99985.00;;;;5133539;27;20053;-78
2021/12/21 06:00:33;;;;;;;0.00;0.00;;;;;19.40;99988.00;;;;5135363;27;20047;-76
2021/12/21 06:03:03;;;;;;;0.00;0.00;;;;;19.50;99971.00;;;;5135157;27;20047;-75
2021/12/21 06:05:33;;;;;;;0.00;0.00;;;;;19.50;99965.00;;;;5135924;27;20047;-74
2021/12/21 06:08:03;;;;;;;0.00;0.00;;;;;19.40;99980.00;;;;5135873;27;20047;-75
2021/12/21 06:10:37;;;;;;;0.00;0.00;;;;;19.50;99979.00;;;;5134869;27;20118;-74
2021/12/21 06:16:21;;;;;;;0.00;0.00;;;;;19.40;99976.00;;;;5134477;27;20038;-75
2021/12/21 06:26:53;;;;;;;0.00;0.00;;;;;19.60;99966.00;;;;5146525;27;20038;-74
2021/12/21 06:29:22;;;;;;;0.00;0.00;;;;;19.60;99961.00;;;;5147396;27;20111;-74
2021/12/21 06:31:54;;;;;;;0.00;0.00;;;;;19.70;99961.00;;;;5136347;27;20504;-77
2021/12/21 06:34:24;;;;;;;;;;;;;19.70;99977.00;;;;5137012;27;20047;-74
2021/12/21 06:36:53;;;;;;;0.00;0.00;;;;;19.80;99962.00;;;;5137814;27;19934;-77
2021/12/21 06:39:23;;;;;;;0.00;0.00;;;;;19.90;99958.00;;;;5136032;27;20045;-76
2021/12/21 06:41:53;;;;;;;0.00;0.00;;;;;20.10;99972.00;;;;5118398;27;20152;-75
2021/12/21 06:44:22;;;;;;;0.00;0.00;;;;;20.10;99966.00;;;;5136161;27;20039;-74
2021/12/21 06:52:22;;;;;;;0.00;0.00;;;;;20.40;99972.00;;;;5132642;27;20565;-76
2021/12/21 06:54:52;;;;;;;0.00;0.00;;;;;20.30;99961.00;;;;5132829;27;20047;-75
2021/12/21 06:57:21;;;;;;;0.00;0.00;;;;;20.30;99957.00;;;;5134462;27;20126;-77
2021/12/21 06:59:51;;;;;;;0.00;0.00;;;;;20.30;99945.00;;;;5133085;27;20502;-75
2021/12/21 07:02:21;;;;;;;0.00;0.00;;;;;20.40;99949.00;;;;5132423;27;20027;-74
2021/12/21 07:04:51;;;;;;;3.10;1.55;;;;;20.50;99936.00;;;;5132460;27;20096;-75
2021/12/21 07:07:21;;;;;;;0.00;0.00;;;;;20.50;99962.00;;;;5134212;27;20031;-75
2021/12/21 07:09:59;;;;;;;0.00;0.00;;;;;20.50;99943.00;;;;5135668;27;20035;-77
2021/12/21 07:20:22;;;;;;;0.00;0.00;;;;;20.60;99957.00;;;;5136095;27;20047;-75
2021/12/21 07:22:51;;;;;;;0.80;0.80;;;;;20.60;99944.00;;;;5135456;27;20043;-74
2021/12/21 07:25:21;;;;;;;0.00;0.00;;;;;20.60;99936.00;;;;5135561;27;20078;-77
2021/12/21 07:27:50;;;;;;;0.00;0.00;;;;;20.60;99957.00;;;;5117585;27;20429;-74
2021/12/21 07:30:20;;;;;;;0.00;0.00;;;;;20.60;99956.00;;;;5136352;27;20087;-74
2021/12/21 07:32:50;;;;;;;1.25;1.17;;;;;20.70;99962.00;;;;5135841;27;20552;-76
2021/12/21 07:35:19;;;;;;;0.00;0.00;;;;;20.80;99964.00;;;;5136885;27;20051;-74
2021/12/21 07:37:49;;;;;;;0.00;0.00;;;;;20.80;99979.00;;;;5136907;27;20467;-75
2021/12/21 07:40:20;;;;;;;0.00;0.00;;;;;20.80;99976.00;;;;5135439;27;20051;-75
2021/12/21 07:42:50;;;;;;;0.00;0.00;;;;;20.80;99980.00;;;;5135746;27;20122;-75
2021/12/21 07:45:19;;;;;;;0.00;0.00;;;;;20.80;99989.00;;;;5135228;27;20126;-76
2021/12/21 07:47:49;;;;;;;0.00;0.00;;;;;20.80;99986.00;;;;5133907;27;20051;-76
2021/12/21 07:50:19;;;;;;;0.00;0.00;;;;;20.70;99997.00;;;;5135749;27;20113;-76
2021/12/21 07:52:51;;;;;;;0.00;0.00;;;;;20.80;99979.00;;;;5137918;27;20088;-75
2021/12/21 07:55:22;;;;;;;0.00;0.00;;;;;20.80;99973.00;;;;5136669;27;20039;-75
2021/12/21 07:57:52;;;;;;;0.00;0.00;;;;;20.80;99993.00;;;;5133479;27;20098;-76
2021/12/21 08:00:22;;;;;;;0.00;0.00;;;;;20.80;99982.00;;;;5134168;27;20073;-75
2021/12/21 08:02:53;;;;;;;0.00;0.00;;;;;20.80;99983.00;;;;5135775;27;20150;-75
2021/12/21 08:05:24;;;;;;;0.80;0.40;;;;;20.80;100007.00;;;;5134179;27;20057;-75
2021/12/21 08:07:57;;;;;;;0.20;0.20;;;;;20.80;99996.00;;;;5135643;27;20062;-77
2021/12/21 08:10:40;;;;;;;0.10;0.10;;;;;20.80;99996.00;;;;5135052;27;20039;-74
2021/12/21 08:13:10;;;;;;;0.00;0.00;;;;;20.80;99979.00;;;;5135643;27;20051;-77
2021/12/21 08:15:40;;;;;;;0.00;0.00;;;;;20.80;99991.00;;;;5135640;27;20057;-77
2021/12/21 08:18:10;;;;;;;0.00;0.00;;;;;20.80;99975.00;;;;5134469;27;20130;-75
2021/12/21 08:20:39;;;;;;;0.00;0.00;;;;;20.80;99980.00;;;;5134510;27;20039;-75
2021/12/21 08:23:09;;;;;;;0.00;0.00;;;;;20.90;99986.00;;;;5132839;27;20058;-78
2021/12/21 08:25:38;;;;;;;0.00;0.00;;;;;20.90;99979.00;;;;5132297;27;20100;-77
2021/12/21 08:28:08;;;;;;;0.00;0.00;;;;;20.90;100001.00;;;;5134338;27;20043;-76
2021/12/21 08:30:38;;;;;;;0.00;0.00;;;;;20.90;100007.00;;;;5133341;27;20095;-77
2021/12/21 08:33:08;;;;;;;0.00;0.00;;;;;21.00;99996.00;;;;5132517;27;20055;-75
2021/12/21 08:35:39;;;;;;;0.00;0.00;;;;;21.00;99994.00;;;;5132969;27;20061;-77
2021/12/21 08:38:14;;;;;;;0.00;0.00;;;;;21.00;100004.00;;;;5131400;27;20043;-78
2021/12/21 08:40:49;;;;;;;0.00;0.00;;;;;21.00;100003.00;;;;5133235;27;20047;-76
2021/12/21 08:43:23;;;;;;;0.00;0.00;;;;;21.00;99989.00;;;;5131136;27;20047;-75
2021/12/21 08:45:55;;;;;;;0.00;0.00;;;;;21.00;99984.00;;;;5131488;27;20047;-75
2021/12/21 08:48:25;;;;;;;;;;;;;21.00;99997.00;;;;5134486;27;20046;-78
2021/12/21 08:50:56;;;;;;;0.00;0.00;;;;;21.10;99976.00;;;;5132863;27;19946;-77
2021/12/21 08:53:25;;;;;;;0.00;0.00;;;;;21.10;99986.00;;;;5132297;27;20043;-75
2021/12/21 08:55:55;;;;;;;0.00;0.00;;;;;21.10;99982.00;;;;5129190;27;20745;-75
2021/12/21 08:58:26;;;;;;;0.00;0.00;;;;;21.20;99984.00;;;;5130455;27;20047;-77
2021/12/21 09:00:56;;;;;;;0.00;0.00;;;;;21.20;100004.00;;;;5131978;27;20138;-77
2021/12/21 09:03:25;;;;;;;0.00;0.00;;;;;21.30;100005.00;;;;5131044;27;20059;-76
2021/12/21 09:05:56;;;;;;;0.00;0.00;;;;;21.30;100014.00;;;;5132557;27;20088;-75
2021/12/21 09:08:29;;;;;;;0.00;0.00;;;;;21.30;100012.00;;;;5130502;27;20055;-77
2021/12/21 09:11:03;;;;;;;0.00;0.00;;;;;21.30;100018.00;;;;5131048;27;20058;-76
2021/12/21 09:13:33;;;;;;;0.00;0.00;;;;;21.40;100008.00;;;;5129562;27;20613;-77
2021/12/21 09:16:03;;;;;;;0.10;0.10;;;;;21.40;100002.00;;;;5129210;27;20528;-75
2021/12/21 09:18:33;;;;;;;0.00;0.00;;;;;21.40;99993.00;;;;5128976;27;20045;-75
2021/12/21 09:21:06;;;;;;;0.00;0.00;;;;;21.40;99991.00;;;;5128971;27;20414;-77
2021/12/21 09:23:35;;;;;;;7.88;0.25;;;;;21.40;99986.00;;;;5129417;27;20035;-74
2021/12/21 09:26:05;;;;;;;0.00;0.00;;;;;21.40;99982.00;;;;5129774;27;20043;-75
2021/12/21 09:28:34;;;;;;;0.00;0.00;;;;;21.40;99982.00;;;;5130217;27;20039;-75
2021/12/21 09:31:05;;;;;;;0.00;0.00;;;;;21.50;99997.00;;;;5130764;27;20076;-75
2021/12/21 09:33:34;;;;;;;0.00;0.00;;;;;21.50;100004.00;;;;5130442;27;20043;-78
2021/12/21 09:36:04;;;;;;;0.00;0.00;;;;;21.50;99993.00;;;;5131576;27;20108;-75
2021/12/21 09:38:34;;;;;;;0.00;0.00;;;;;21.50;100017.00;;;;5132123;27;20448;-76
2021/12/21 09:41:05;;;;;;;0.00;0.00;;;;;21.50;100020.00;;;;5130392;27;20046;-76
2021/12/21 09:43:36;;;;;;;0.00;0.00;;;;;21.50;100010.00;;;;5129413;27;20446;-76
2021/12/21 09:46:05;;;;;;;0.00;0.00;;;;;21.50;100030.00;;;;5130514;27;20050;-76
2021/12/21 09:48:35;;;;;;;0.00;0.00;;;;;21.50;100040.00;;;;5130193;28;20502;-77
2021/12/21 09:51:05;;;;;;;0.00;0.00;;;;;21.60;100049.00;;;;5129224;27;20039;-74
2021/12/21 09:53:36;;;;;;;0.00;0.00;;;;;21.60;100028.00;;;;5129928;28;20349;-77
2021/12/21 09:56:07;;;;;;;0.00;0.00;;;;;21.70;100028.00;;;;5130971;28;20058;-73
2021/12/21 09:58:36;;;;;;;0.00;0.00;;;;;21.80;100029.00;;;;5128414;28;20047;-76
2021/12/21 10:01:06;;;;;;;0.00;0.00;;;;;21.80;100023.00;;;;5128675;27;20051;-75
2021/12/21 10:03:36;;;;;;;0.03;0.03;;;;;21.80;100042.00;;;;5128736;27;20063;-78
2021/12/21 10:06:10;;;;;;;0.00;0.00;;;;;21.90;100046.00;;;;5128751;27;20063;-76
2021/12/21 10:08:40;;;;;;;0.00;0.00;;;;;21.90;100028.00;;;;5128994;28;20051;-74
2021/12/21 10:11:19;;;;;;;0.00;0.00;;;;;22.00;100025.00;;;;5130072;27;20048;-75
2021/12/21 10:13:50;;;;;;;0.00;0.00;;;;;22.00;100033.00;;;;5128169;28;20058;-75
2021/12/21 10:16:22;;;;;;;0.00;0.00;;;;;22.10;100046.00;;;;5128575;27;20047;-75
2021/12/21 10:18:52;;;;;;;0.00;0.00;;;;;22.10;100034.00;;;;5138469;28;20038;-74
2021/12/21 10:21:22;;;;;;;0.00;0.00;;;;;22.20;100041.00;;;;5139490;27;20070;-74
2021/12/21 10:23:52;;;;;;;0.00;0.00;;;;;22.30;100040.00;;;;5131866;27;20039;-76
2021/12/21 10:26:23;;;;;;;0.00;0.00;;;;;22.30;100037.00;;;;5127901;27;20426;-76
2021/12/21 10:29:07;;;;;;;0.00;0.00;;;;;22.40;100013.00;;;;5128043;27;20039;-75
2021/12/21 10:31:40;;;;;;;0.00;0.00;;;;;22.50;100016.00;;;;5128648;28;20087;-77
2021/12/21 10:34:18;;;;;;;0.00;0.00;;;;;22.40;100023.00;;;;5128646;27;20500;-76
2021/12/21 10:36:50;;;;;;;0.13;0.13;;;;;22.50;100020.00;;;;5127169;27;20050;-76
2021/12/21 10:39:31;;;;;;;0.20;0.20;;;;;22.60;100008.00;;;;5130094;27;20080;-76
2021/12/21 10:42:03;;;;;;;0.32;0.32;;;;;22.70;100021.00;;;;5130231;27;20497;-75
2021/12/21 10:44:33;;;;;;;0.00;0.00;;;;;22.80;100004.00;;;;5132223;27;20039;-76
2021/12/21 10:47:03;;;;;;;0.00;0.00;;;;;22.90;99996.00;;;;5132842;27;20517;-74
2021/12/21 10:49:34;;;;;;;0.00;0.00;;;;;23.00;100010.00;;;;5132484;27;20043;-77
2021/12/21 10:52:10;;;;;;;0.00;0.00;;;;;22.80;100019.00;;;;5132065;27;20043;-74
2021/12/21 10:54:46;;;;;;;0.00;0.00;;;;;22.70;100003.00;;;;5131924;27;20609;-77
2021/12/21 10:57:32;;;;;;;0.00;0.00;;;;;22.70;100000.00;;;;5134422;27;20043;-75
2021/12/21 11:00:13;;;;;;;1.77;0.55;;;;;22.80;100008.00;;;;5134675;27;20069;-79
2021/12/21 11:02:45;;;;;;;0.00;0.00;;;;;22.90;100009.00;;;;5135113;27;20159;-76
2021/12/21 11:05:18;;;;;;;0.00;0.00;;;;;22.90;100015.00;;;;5135509;27;20579;-76
2021/12/21 11:10:29;;;;;;;0.00;0.00;;;;;22.90;100043.00;;;;5130238;27;20051;-77
2021/12/21 11:13:11;;;;;;;0.10;0.10;;;;;23.00;100037.00;;;;5129509;27;20047;-79
2021/12/21 11:15:48;;;;;;;0.00;0.00;;;;;23.00;100043.00;;;;5128203;27;20514;-78
2021/12/21 11:18:19;;;;;;;0.00;0.00;;;;;22.90;100065.00;;;;5119771;27;20043;-78
2021/12/21 11:20:52;;;;;;;0.00;0.00;;;;;22.90;100059.00;;;;5128060;27;20070;-79
2021/12/21 11:23:23;;;;;;;0.00;0.00;;;;;22.90;100079.00;;;;5130507;27;20058;-79
2021/12/21 11:25:56;;;;;;;0.00;0.00;;;;;23.00;100056.00;;;;5130946;27;20035;-78
2021/12/21 11:28:35;;;;;;;0.00;0.00;;;;;23.10;100085.00;;;;5131000;27;20069;-78
2021/12/21 11:31:08;;;;;;;0.00;0.00;;;;;23.10;100069.00;;;;5114801;27;20046;-79
2021/12/21 11:33:44;;;;;;;0.00;0.00;;;;;23.10;100076.00;;;;5109298;28;20443;-80
2021/12/21 11:39:06;;;;;;;0.20;0.20;;;;;23.50;100062.00;;;;5108779;28;20459;-77
2021/12/21 11:41:39;;;;;;;0.00;0.00;;;;;23.50;100082.00;;;;5109433;28;20135;-79
2021/12/21 11:44:27;;;;;;;0.10;0.10;;;;;23.60;100068.00;;;;5108837;28;20046;-78
2021/12/21 11:47:01;;;;;;;0.00;0.00;;;;;23.60;100075.00;;;;5108451;28;20044;-79
2021/12/21 11:49:31;;;;;;;0.00;0.00;;;;;23.70;100064.00;;;;5108827;28;20490;-79
2021/12/21 11:52:13;;;;;;;0.20;0.20;;;;;23.80;100052.00;;;;5108970;28;20093;-81
2021/12/21 11:54:53;;;;;;;2.10;0.47;;;;;24.00;100082.00;;;;5109141;28;20040;-80
2021/12/21 11:57:38;;;;;;;0.20;0.20;;;;;24.00;100065.00;;;;5108692;28;20047;-78
2021/12/21 12:00:22;;;;;;;2.95;1.88;;;;;24.10;100080.00;;;;5108618;28;20122;-79
2021/12/21 12:02:54;;;;;;;0.00;0.00;;;;;24.00;100061.00;;;;5108476;28;20414;-80
2021/12/21 12:05:28;;;;;;;0.08;0.08;;;;;24.20;100078.00;;;;5108779;28;20119;-79
2021/12/21 12:08:10;;;;;;;0.00;0.00;;;;;24.50;100069.00;;;;5108183;28;20044;-77
2021/12/21 12:10:49;;;;;;;1.27;0.65;;;;;24.80;100050.00;;;;5107990;28;20510;-78
2021/12/21 12:13:25;;;;;;;0.35;0.30;;;;;25.10;100049.00;;;;5107427;28;20040;-76
2021/12/21 12:16:07;;;;;;;0.15;0.10;;;;;25.10;100042.00;;;;5108118;28;20070;-77
2021/12/21 12:18:44;;;;;;;;;;;;;25.60;100057.00;;;;5109158;28;20044;-76
2021/12/21 12:21:28;;;;;;;5.85;1.15;;;;;25.70;100042.00;;;;5108850;28;19920;-80
2021/12/21 12:24:01;;;;;;;0.00;0.00;;;;;26.10;100054.00;;;;5108495;28;20044;-77
2021/12/21 12:26:39;;;;;;;0.10;0.10;;;;;26.00;100030.00;;;;5107439;28;20127;-75
2021/12/21 12:29:18;;;;;;;0.20;0.20;;;;;26.40;100014.00;;;;5107666;28;20059;-75
2021/12/21 12:32:03;;;;;;;0.10;0.10;;;;;26.80;100028.00;;;;5107717;28;20470;-77
2021/12/21 12:34:38;;;;;;;0.10;0.10;;;;;27.30;100041.00;;;;5107638;28;20047;-78
2021/12/21 12:37:18;;;;;;;0.00;0.00;;;;;27.40;100044.00;;;;5108222;28;20069;-76
2021/12/21 12:39:53;;;;;;;1.50;1.10;;;;;27.50;100022.00;;;;5107252;28;20039;-77
2021/12/21 12:42:26;;;;;;;0.05;0.03;;;;;28.20;100001.00;;;;5107211;28;20289;-78
2021/12/21 12:45:14;;;;;;;0.47;0.47;;;;;28.40;100010.00;;;;5106502;28;20054;-77
2021/12/21 12:47:52;;;;;;;0.35;0.35;;;;;27.60;100009.00;;;;5108244;28;20042;-79
2021/12/21 12:50:30;;;;;;;0.10;0.10;;;;;27.30;100019.00;;;;5107834;28;20410;-78
2021/12/21 12:53:02;;;;;;;1.00;0.98;;;;;27.50;100022.00;;;;5107409;28;20445;-78
2021/12/21 12:55:58;;;;;;;0.63;0.47;;;;;27.30;99999.00;;;;5107255;28;20114;-77
2021/12/21 12:59:01;;;;;;;0.00;0.00;;;;;27.30;99995.00;;;;5107248;28;20112;-79
2021/12/21 13:01:38;;;;;;;0.00;0.00;;;;;27.40;100012.00;;;;5107346;28;20043;-80
2021/12/21 13:04:12;;;;;;;0.20;0.20;;;;;27.70;100016.00;;;;5108438;28;20062;-79
2021/12/21 13:06:46;;;;;;;0.10;0.10;;;;;27.70;100002.00;;;;5108036;28;20055;-78
2021/12/21 13:09:18;;;;;;;0.10;0.10;;;;;27.50;99998.00;;;;5107825;28;20078;-78
2021/12/21 13:11:49;;;;;;;0.45;0.35;;;;;27.20;99995.00;;;;5107371;28;20126;-77
2021/12/21 13:14:18;;;;;;;;;;;;;27.80;100007.00;;;;5108618;28;20040;-76
2021/12/21 13:16:49;;;;;;;0.52;0.52;;;;;28.00;99990.00;;;;5107675;28;19931;-78
2021/12/21 13:19:21;;;;;;;7.10;1.95;;;;;28.00;99988.00;;;;5105885;28;20063;-77
2021/12/21 13:21:57;;;;;;;0.20;0.20;;;;;28.60;99998.00;;;;5107288;28;20387;-78
2021/12/21 13:24:34;;;;;;;2.70;0.47;;;;;28.80;99988.00;;;;5107211;28;20066;-79
2021/12/21 13:27:12;;;;;;;0.43;0.35;;;;;28.50;100003.00;;;;5107215;28;20051;-77
2021/12/21 13:29:43;;;;;;;0.73;0.43;;;;;28.30;100004.00;;;;5106864;28;20109;-77
2021/12/21 13:32:15;;;;;;;0.38;0.30;;;;;27.90;99998.00;;;;5106568;28;20066;-78
2021/12/21 13:34:49;;;;;;;2.05;1.52;;;;;27.70;99988.00;;;;5106707;28;20044;-77
2021/12/21 13:37:21;;;;;;;1.20;0.90;;;;;27.90;99998.00;;;;5106907;28;20110;-78